Time;durP1;ratioP1;P1;durP2;ratioP2;P2;SDS_P1;SDS_P2;PMS_P1;PMS_P2;Temp;Humidity;BMP_temperature;BMP_pressure;BME280_temperature;BME280_humidity;BME280_pressure;Samples;Min_cycle;Max_cycle;Signal;HPM_P1;HPM_P2
2023/12/05 00:02:25;;;;;;;5.22;2.95;;;;;;;;;;5064402;28;20032;-66
2023/12/05 00:04:52;;;;;;;4.68;3.25;;;;;;;;;;5054223;28;21248;-66
2023/12/05 00:07:19;;;;;;;6.70;3.40;;;;;;;;;;5061526;28;20033;-66
2023/12/05 00:09:45;;;;;;;5.53;2.97;;;;;;;;;;5063757;28;20495;-66
2023/12/05 00:12:11;;;;;;;6.70;3.65;;;;;;;;;;5055527;28;20047;-66
2023/12/05 00:14:38;;;;;;;5.55;3.50;;;;;;;;;;5060208;28;20325;-66
2023/12/05 00:17:04;;;;;;;3.53;2.75;;;;;;;;;;5055995;28;20100;-66
2023/12/05 00:19:30;;;;;;;5.78;3.03;;;;;;;;;;5063678;28;20098;-67
2023/12/05 00:21:56;;;;;;;3.75;3.03;;;;;;;;;;5055353;28;20033;-66
2023/12/05 00:24:23;;;;;;;3.40;3.10;;;;;;;;;;5063367;28;20198;-66
2023/12/05 00:26:49;;;;;;;3.75;3.22;;;;;;;;;;5062369;28;20032;-66
2023/12/05 00:29:15;;;;;;;6.40;3.35;;;;;;;;;;5064948;28;20369;-66
2023/12/05 00:31:41;;;;;;;7.65;2.90;;;;;;;;;;5049644;28;20036;-67
2023/12/05 00:34:08;;;;;;;6.13;2.83;;;;;;;;;;5063747;28;20563;-66
2023/12/05 00:36:34;;;;;;;6.05;3.30;;;;;;;;;;5063527;28;20095;-67
2023/12/05 00:39:00;;;;;;;3.90;3.13;;;;;;;;;;5061707;28;20040;-66
2023/12/05 00:41:26;;;;;;;4.35;2.95;;;;;;;;;;5071379;28;20021;-66
2023/12/05 00:43:52;;;;;;;4.13;2.63;;;;;;;;;;5059977;28;20028;-66
2023/12/05 00:46:21;;;;;;;5.07;2.72;;;;;;;;;;5054157;28;20032;-66
2023/12/05 00:48:47;;;;;;;5.20;3.67;;;;;;;;;;5066517;28;20107;-65
2023/12/05 00:51:14;;;;;;;3.80;2.45;;;;;;;;;;5060808;28;20330;-66
2023/12/05 00:53:40;;;;;;;3.60;2.53;;;;;;;;;;5059156;28;20125;-66
2023/12/05 00:56:14;;;;;;;4.22;3.08;;;;;;;;;;5065772;28;20067;-66
2023/12/05 00:58:41;;;;;;;4.13;2.72;;;;;;;;;;5062622;28;20020;-67
2023/12/05 01:01:08;;;;;;;8.93;2.90;;;;;;;;;;5068998;28;20032;-67
2023/12/05 01:03:34;;;;;;;5.63;2.78;;;;;;;;;;5067453;28;20028;-66
2023/12/05 01:06:00;;;;;;;5.70;3.33;;;;;;;;;;5057232;28;20040;-66
2023/12/05 01:08:27;;;;;;;7.43;3.85;;;;;;;;;;5058809;28;20028;-66
2023/12/05 01:10:53;;;;;;;3.42;2.47;;;;;;;;;;5077822;28;20040;-67
2023/12/05 01:13:19;;;;;;;5.32;3.00;;;;;;;;;;5049760;28;20032;-67
2023/12/05 01:15:45;;;;;;;3.28;2.55;;;;;;;;;;5062366;28;20119;-66
2023/12/05 01:18:12;;;;;;;4.90;3.10;;;;;;;;;;5066485;28;20024;-67
2023/12/05 01:20:38;;;;;;;6.70;3.80;;;;;;;;;;5059975;28;20021;-67
2023/12/05 01:23:04;;;;;;;3.88;2.90;;;;;;;;;;5061282;28;20041;-66
2023/12/05 01:25:30;;;;;;;4.65;3.20;;;;;;;;;;5064397;28;20139;-67
2023/12/05 01:27:56;;;;;;;4.63;2.78;;;;;;;;;;5064173;28;20028;-66
2023/12/05 01:30:23;;;;;;;4.15;2.55;;;;;;;;;;5051161;28;20453;-67
2023/12/05 01:32:49;;;;;;;5.25;2.70;;;;;;;;;;5052261;28;20068;-66
2023/12/05 01:35:16;;;;;;;4.88;3.00;;;;;;;;;;5058359;28;20033;-65
2023/12/05 01:37:42;;;;;;;2.67;2.47;;;;;;;;;;5060427;28;20490;-66
2023/12/05 01:40:09;;;;;;;5.45;2.40;;;;;;;;;;5058889;28;20035;-66
2023/12/05 01:42:38;;;;;;;3.55;2.50;;;;;;;;;;5062396;28;20521;-67
2023/12/05 01:45:05;;;;;;;3.15;2.63;;;;;;;;;;5063702;28;20052;-66
2023/12/05 01:47:33;;;;;;;2.95;2.40;;;;;;;;;;5060967;28;20024;-66
2023/12/05 01:50:00;;;;;;;8.68;2.72;;;;;;;;;;5062622;28;20086;-66
2023/12/05 01:52:26;;;;;;;3.78;3.00;;;;;;;;;;5067083;28;20028;-66
2023/12/05 01:54:53;;;;;;;6.50;2.60;;;;;;;;;;5067927;28;20101;-67
2023/12/05 01:57:20;;;;;;;4.28;2.45;;;;;;;;;;5063958;28;20028;-66
2023/12/05 01:59:46;;;;;;;7.60;2.80;;;;;;;;;;5060521;28;20028;-66
2023/12/05 02:02:13;;;;;;;5.50;2.78;;;;;;;;;;5066189;28;20070;-67
2023/12/05 02:04:40;;;;;;;4.07;2.40;;;;;;;;;;5070176;28;20383;-66
2023/12/05 02:07:06;;;;;;;5.78;2.95;;;;;;;;;;5072976;28;20404;-66
2023/12/05 02:09:33;;;;;;;15.27;2.80;;;;;;;;;;5057884;28;20036;-66
2023/12/05 02:11:59;;;;;;;5.10;2.53;;;;;;;;;;5053965;28;20040;-66
2023/12/05 02:14:25;;;;;;;4.40;2.30;;;;;;;;;;5057491;28;20033;-66
2023/12/05 02:17:12;;;;;;;4.07;2.65;;;;;;;;;;5060696;28;20025;-66
2023/12/05 02:19:45;;;;;;;5.70;3.38;;;;;;;;;;5064753;28;20036;-66
2023/12/05 02:22:31;;;;;;;3.95;2.38;;;;;;;;;;5056436;28;20414;-66
2023/12/05 02:25:05;;;;;;;6.50;2.35;;;;;;;;;;5047382;28;20113;-66
2023/12/05 02:27:38;;;;;;;4.25;2.13;;;;;;;;;;5061493;28;20059;-65
2023/12/05 02:30:05;;;;;;;4.10;2.70;;;;;;;;;;5057327;28;20165;-66
2023/12/05 02:32:31;;;;;;;6.20;2.50;;;;;;;;;;5061038;28;20024;-66
2023/12/05 02:34:57;;;;;;;6.00;2.42;;;;;;;;;;5061593;28;20060;-66
2023/12/05 02:37:30;;;;;;;3.10;2.17;;;;;;;;;;5058462;28;20021;-66
2023/12/05 02:40:26;;;;;;;4.10;2.30;;;;;;;;;;5055276;28;20305;-67
2023/12/05 02:42:52;;;;;;;4.95;2.45;;;;;;;;;;5039849;28;20534;-66
2023/12/05 02:45:20;;;;;;;5.18;3.08;;;;;;;;;;5061423;28;20892;-66
2023/12/05 02:47:48;;;;;;;7.00;2.33;;;;;;;;;;5055909;28;20115;-67
2023/12/05 02:50:16;;;;;;;3.45;2.72;;;;;;;;;;5060418;28;20035;-65
2023/12/05 02:52:42;;;;;;;2.80;2.50;;;;;;;;;;5074542;28;20155;-66
2023/12/05 02:55:09;;;;;;;2.63;1.90;;;;;;;;;;5063667;28;20082;-66
2023/12/05 02:57:35;;;;;;;3.00;2.20;;;;;;;;;;5055106;28;20037;-65
2023/12/05 03:00:01;;;;;;;2.70;2.15;;;;;;;;;;5055659;28;20275;-66
2023/12/05 03:02:27;;;;;;;4.40;2.42;;;;;;;;;;5053058;28;20017;-67
2023/12/05 03:04:53;;;;;;;3.60;2.42;;;;;;;;;;5059822;28;20041;-65
2023/12/05 03:07:19;;;;;;;5.90;2.67;;;;;;;;;;5053812;28;20081;-66
2023/12/05 03:09:46;;;;;;;2.40;2.10;;;;;;;;;;5061213;28;20242;-66
2023/12/05 03:12:12;;;;;;;4.40;2.42;;;;;;;;;;5055963;28;20055;-65
2023/12/05 03:14:38;;;;;;;5.00;2.83;;;;;;;;;;5058710;28;20478;-68
2023/12/05 03:17:05;;;;;;;4.47;2.50;;;;;;;;;;5056645;28;20050;-65
2023/12/05 03:19:31;;;;;;;4.65;2.70;;;;;;;;;;5058037;28;20453;-66
2023/12/05 03:21:57;;;;;;;4.07;2.40;;;;;;;;;;5056473;28;20032;-65
2023/12/05 03:24:23;;;;;;;3.50;2.88;;;;;;;;;;5061706;28;20032;-66
2023/12/05 03:26:49;;;;;;;2.22;2.03;;;;;;;;;;5061745;28;20052;-66
2023/12/05 03:29:16;;;;;;;7.80;2.97;;;;;;;;;;5061262;28;20028;-66
2023/12/05 03:31:42;;;;;;;10.13;2.67;;;;;;;;;;5053123;28;20086;-66
2023/12/05 03:34:08;;;;;;;3.60;2.50;;;;;;;;;;5058583;28;20496;-66
2023/12/05 03:36:35;;;;;;;3.47;2.38;;;;;;;;;;5055640;28;20048;-66
2023/12/05 03:39:01;;;;;;;8.95;2.33;;;;;;;;;;5074293;28;20025;-66
2023/12/05 03:41:27;;;;;;;12.20;3.00;;;;;;;;;;5056658;28;20031;-66
2023/12/05 03:43:53;;;;;;;4.07;2.40;;;;;;;;;;5055804;28;20503;-66
2023/12/05 03:46:19;;;;;;;5.25;2.35;;;;;;;;;;5056434;28;20024;-65
2023/12/05 03:48:46;;;;;;;3.90;2.15;;;;;;;;;;5056559;28;20024;-66
2023/12/05 03:51:13;;;;;;;4.93;2.70;;;;;;;;;;5052582;28;20507;-66
2023/12/05 03:53:39;;;;;;;2.20;2.00;;;;;;;;;;5057007;28;20155;-66
2023/12/05 03:56:06;;;;;;;3.83;2.47;;;;;;;;;;5053870;28;20043;-66
2023/12/05 03:58:32;;;;;;;3.92;2.50;;;;;;;;;;5061097;28;20510;-66
2023/12/05 04:00:58;;;;;;;3.08;2.40;;;;;;;;;;5059569;28;20111;-66
2023/12/05 04:03:24;;;;;;;5.40;2.28;;;;;;;;;;5070995;28;20452;-66
2023/12/05 04:05:51;;;;;;;2.83;2.20;;;;;;;;;;5074750;28;20028;-66
2023/12/05 04:08:17;;;;;;;3.90;2.25;;;;;;;;;;5057378;28;20700;-66
2023/12/05 04:10:43;;;;;;;3.53;2.30;;;;;;;;;;5055516;28;20630;-67
2023/12/05 04:13:09;;;;;;;3.35;2.13;;;;;;;;;;5040517;28;20037;-66
2023/12/05 04:15:35;;;;;;;4.10;2.00;;;;;;;;;;5058751;28;20074;-67
2023/12/05 04:18:01;;;;;;;5.63;2.35;;;;;;;;;;5056253;28;20044;-66
2023/12/05 04:20:27;;;;;;;2.80;2.15;;;;;;;;;;5055132;28;20079;-66
2023/12/05 04:22:53;;;;;;;3.08;2.03;;;;;;;;;;5057796;28;20081;-67
2023/12/05 04:25:20;;;;;;;4.85;2.03;;;;;;;;;;5055181;28;20111;-67
2023/12/05 04:27:46;;;;;;;2.80;2.20;;;;;;;;;;5063273;28;20028;-70
2023/12/05 04:30:12;;;;;;;5.20;2.70;;;;;;;;;;5059004;28;20044;-67
2023/12/05 04:32:38;;;;;;;4.28;2.00;;;;;;;;;;5061581;28;20055;-67
2023/12/05 04:35:05;;;;;;;3.30;2.20;;;;;;;;;;5059900;28;20455;-67
2023/12/05 04:37:31;;;;;;;2.50;2.00;;;;;;;;;;5061732;28;20082;-67
2023/12/05 04:39:57;;;;;;;5.05;2.30;;;;;;;;;;5053021;28;20147;-67
2023/12/05 04:42:23;;;;;;;4.25;2.03;;;;;;;;;;5065283;28;20016;-65
2023/12/05 04:44:49;;;;;;;2.75;2.47;;;;;;;;;;5061336;28;20075;-65
2023/12/05 04:47:16;;;;;;;3.08;2.13;;;;;;;;;;5061538;28;20028;-64
2023/12/05 04:49:42;;;;;;;3.45;2.22;;;;;;;;;;5053906;28;20662;-65
2023/12/05 04:52:08;;;;;;;4.78;2.05;;;;;;;;;;5067367;28;20038;-64
2023/12/05 04:54:34;;;;;;;4.70;1.77;;;;;;;;;;5075631;28;20546;-64
2023/12/05 04:57:00;;;;;;;5.13;2.53;;;;;;;;;;5067979;28;20468;-64
2023/12/05 04:59:26;;;;;;;2.97;2.00;;;;;;;;;;5066990;28;20514;-64
2023/12/05 05:01:54;;;;;;;2.70;2.30;;;;;;;;;;5063629;28;20031;-65
2023/12/05 05:04:20;;;;;;;5.15;2.00;;;;;;;;;;5081216;28;20033;-64
2023/12/05 05:06:46;;;;;;;2.30;2.10;;;;;;;;;;5063035;28;20032;-65
2023/12/05 05:09:12;;;;;;;3.55;1.83;;;;;;;;;;5061227;28;20484;-64
2023/12/05 05:11:38;;;;;;;1.95;1.75;;;;;;;;;;5060843;28;20391;-64
2023/12/05 05:14:04;;;;;;;3.15;2.30;;;;;;;;;;5063934;28;20021;-65
2023/12/05 05:16:30;;;;;;;4.82;2.28;;;;;;;;;;5065209;28;20060;-65
2023/12/05 05:18:59;;;;;;;2.58;2.10;;;;;;;;;;5061118;28;20082;-64
2023/12/05 05:21:25;;;;;;;3.10;1.80;;;;;;;;;;5057168;28;20021;-65
2023/12/05 05:23:51;;;;;;;6.57;2.95;;;;;;;;;;5055360;28;20043;-65
2023/12/05 05:26:17;;;;;;;3.65;1.90;;;;;;;;;;5065824;28;20319;-64
2023/12/05 05:28:43;;;;;;;2.47;2.20;;;;;;;;;;5062802;28;20024;-64
2023/12/05 05:31:10;;;;;;;5.80;2.35;;;;;;;;;;5061667;28;20024;-64
2023/12/05 05:33:36;;;;;;;12.13;2.72;;;;;;;;;;5065306;28;20032;-64
2023/12/05 05:36:02;;;;;;;3.08;2.42;;;;;;;;;;5059764;28;20162;-64
2023/12/05 05:38:28;;;;;;;6.38;2.13;;;;;;;;;;5062877;28;20031;-64
2023/12/05 05:41:07;;;;;;;3.65;1.83;;;;;;;;;;5061801;28;20095;-65
2023/12/05 05:43:38;;;;;;;2.45;1.95;;;;;;;;;;5061701;28;20535;-64
2023/12/05 05:46:04;;;;;;;7.60;2.38;;;;;;;;;;5077306;28;20044;-64
2023/12/05 05:48:31;;;;;;;3.47;2.40;;;;;;;;;;5059462;28;20031;-64
2023/12/05 05:50:57;;;;;;;7.28;2.10;;;;;;;;;;5063443;28;20059;-64
2023/12/05 05:53:23;;;;;;;3.20;2.08;;;;;;;;;;5056418;28;20225;-64
2023/12/05 05:55:49;;;;;;;3.88;1.75;;;;;;;;;;5064124;28;20105;-64
2023/12/05 05:58:15;;;;;;;2.38;1.90;;;;;;;;;;5060169;28;20047;-64
2023/12/05 06:00:41;;;;;;;1.70;1.60;;;;;;;;;;5070483;28;20086;-65
2023/12/05 06:03:08;;;;;;;3.90;2.38;;;;;;;;;;5073679;28;20024;-64
2023/12/05 06:05:35;;;;;;;3.25;1.85;;;;;;;;;;5065054;28;20032;-64
2023/12/05 06:08:01;;;;;;;3.85;2.30;;;;;;;;;;5058991;28;20140;-64
2023/12/05 06:10:27;;;;;;;9.95;2.35;;;;;;;;;;5048756;28;20488;-65
2023/12/05 06:12:53;;;;;;;2.22;1.83;;;;;;;;;;5060539;28;20036;-64
2023/12/05 06:15:20;;;;;;;4.80;2.60;;;;;;;;;;5058364;28;20055;-64
2023/12/05 06:17:46;;;;;;;2.35;2.10;;;;;;;;;;5057056;28;20116;-64
2023/12/05 06:20:12;;;;;;;2.88;2.22;;;;;;;;;;5061593;28;20067;-64
2023/12/05 06:22:38;;;;;;;2.92;2.20;;;;;;;;;;5058967;28;20052;-64
2023/12/05 06:25:05;;;;;;;2.85;1.90;;;;;;;;;;5061983;28;20107;-64
2023/12/05 06:27:31;;;;;;;4.88;2.38;;;;;;;;;;5064506;28;20064;-64
2023/12/05 06:29:58;;;;;;;3.35;2.10;;;;;;;;;;5057625;28;20063;-65
2023/12/05 06:32:24;;;;;;;3.63;1.90;;;;;;;;;;5051204;28;20032;-64
2023/12/05 06:34:50;;;;;;;2.90;2.15;;;;;;;;;;5062933;28;20033;-64
2023/12/05 06:37:16;;;;;;;4.85;2.20;;;;;;;;;;5062804;28;20131;-64
2023/12/05 06:39:42;;;;;;;3.10;2.55;;;;;;;;;;5060918;28;20115;-64
2023/12/05 06:42:09;;;;;;;3.30;2.22;;;;;;;;;;5060605;28;20025;-64
2023/12/05 06:44:35;;;;;;;3.85;2.65;;;;;;;;;;5058894;28;20144;-65
2023/12/05 06:47:01;;;;;;;3.00;2.05;;;;;;;;;;5058518;28;20052;-64
2023/12/05 06:49:28;;;;;;;3.47;2.63;;;;;;;;;;5055291;28;20029;-64
2023/12/05 06:52:00;;;;;;;3.45;2.55;;;;;;;;;;5059807;28;20039;-64
2023/12/05 06:54:26;;;;;;;3.15;2.35;;;;;;;;;;5069791;28;20078;-64
2023/12/05 06:56:52;;;;;;;6.25;2.40;;;;;;;;;;5049985;28;20029;-64
2023/12/05 06:59:19;;;;;;;4.00;2.42;;;;;;;;;;5049824;28;20024;-64
2023/12/05 07:01:45;;;;;;;3.50;2.38;;;;;;;;;;5052535;28;20143;-64
2023/12/05 07:04:11;;;;;;;2.30;1.98;;;;;;;;;;5068307;28;20480;-64
2023/12/05 07:06:38;;;;;;;5.65;2.20;;;;;;;;;;5056011;28;20024;-64
2023/12/05 07:09:05;;;;;;;2.83;2.28;;;;;;;;;;5057056;28;20017;-64
2023/12/05 07:11:31;;;;;;;5.40;2.40;;;;;;;;;;5051355;28;20066;-64
2023/12/05 07:13:57;;;;;;;3.90;2.45;;;;;;;;;;5059754;28;20033;-64
2023/12/05 07:16:24;;;;;;;3.72;2.67;;;;;;;;;;5055068;28;20044;-63
2023/12/05 07:18:50;;;;;;;5.55;2.72;;;;;;;;;;5057303;28;20040;-64
2023/12/05 07:21:16;;;;;;;2.30;2.10;;;;;;;;;;5061073;28;20032;-65
2023/12/05 07:23:42;;;;;;;3.78;2.08;;;;;;;;;;5044984;28;20025;-64
2023/12/05 07:26:08;;;;;;;4.53;1.90;;;;;;;;;;5054190;28;20476;-65
2023/12/05 07:28:35;;;;;;;2.70;2.35;;;;;;;;;;5055369;28;20028;-65
2023/12/05 07:31:01;;;;;;;5.00;2.85;;;;;;;;;;5052478;28;21118;-64
2023/12/05 07:33:28;;;;;;;7.90;2.70;;;;;;;;;;5070921;28;20159;-65
2023/12/05 07:35:57;;;;;;;7.43;2.70;;;;;;;;;;5052599;28;20567;-65
2023/12/05 07:38:23;;;;;;;7.05;2.58;;;;;;;;;;5056674;28;20091;-65
2023/12/05 07:40:50;;;;;;;2.55;2.10;;;;;;;;;;5053638;28;20574;-64
2023/12/05 07:43:17;;;;;;;2.22;1.90;;;;;;;;;;5055862;28;20373;-70
2023/12/05 07:45:43;;;;;;;3.47;2.42;;;;;;;;;;5058419;28;20527;-65
2023/12/05 07:48:09;;;;;;;3.65;2.00;;;;;;;;;;5070641;28;20135;-64
2023/12/05 07:50:35;;;;;;;3.60;2.55;;;;;;;;;;5050307;28;20028;-65
2023/12/05 07:53:02;;;;;;;4.20;2.30;;;;;;;;;;5056358;28;20032;-67
2023/12/05 07:55:29;;;;;;;3.92;2.42;;;;;;;;;;5058147;28;20055;-65
2023/12/05 07:57:55;;;;;;;2.75;2.25;;;;;;;;;;5074364;28;20579;-65
2023/12/05 08:00:21;;;;;;;9.20;2.38;;;;;;;;;;5055979;28;20475;-64
2023/12/05 08:02:48;;;;;;;4.05;2.42;;;;;;;;;;5053325;28;20063;-65
2023/12/05 08:05:14;;;;;;;4.80;2.65;;;;;;;;;;5054776;28;20040;-65
2023/12/05 08:07:40;;;;;;;2.72;2.38;;;;;;;;;;5055020;28;20836;-64
2023/12/05 08:10:07;;;;;;;5.07;2.50;;;;;;;;;;5055355;28;20028;-64
2023/12/05 08:12:33;;;;;;;5.55;2.45;;;;;;;;;;5051537;28;20037;-64
2023/12/05 08:15:00;;;;;;;5.82;2.67;;;;;;;;;;5054762;28;20127;-65
2023/12/05 08:17:27;;;;;;;5.45;2.50;;;;;;;;;;5074411;28;20669;-66
2023/12/05 08:19:53;;;;;;;8.70;3.55;;;;;;;;;;5064961;28;20701;-64
2023/12/05 08:22:21;;;;;;;6.63;2.53;;;;;;;;;;5068801;28;20369;-64
2023/12/05 08:24:48;;;;;;;3.83;2.55;;;;;;;;;;5062566;28;20028;-69
2023/12/05 08:27:14;;;;;;;3.00;2.15;;;;;;;;;;5061785;28;20029;-66
2023/12/05 08:29:41;;;;;;;6.38;2.80;;;;;;;;;;5063567;28;20570;-65
2023/12/05 08:32:08;;;;;;;7.55;2.50;;;;;;;;;;5060497;28;20074;-66
2023/12/05 08:34:34;;;;;;;6.30;2.30;;;;;;;;;;5053526;28;20420;-65
2023/12/05 08:37:01;;;;;;;7.05;2.70;;;;;;;;;;5068170;28;20028;-64
2023/12/05 08:39:27;;;;;;;6.22;2.92;;;;;;;;;;5054874;28;20032;-63
2023/12/05 08:41:53;;;;;;;3.97;2.08;;;;;;;;;;5057358;28;20032;-63
2023/12/05 08:44:19;;;;;;;6.00;2.30;;;;;;;;;;5060320;28;20114;-65
2023/12/05 08:46:46;;;;;;;3.70;2.75;;;;;;;;;;5059558;28;20527;-64
2023/12/05 08:49:13;;;;;;;2.60;2.20;;;;;;;;;;5062770;28;20103;-64
2023/12/05 08:51:39;;;;;;;5.55;2.03;;;;;;;;;;5076760;28;20146;-67
2023/12/05 08:54:06;;;;;;;7.25;2.72;;;;;;;;;;5051620;28;20032;-64
2023/12/05 08:56:32;;;;;;;5.85;2.50;;;;;;;;;;5056363;28;20538;-65
2023/12/05 08:58:59;;;;;;;5.25;3.13;;;;;;;;;;5056632;28;20024;-65
2023/12/05 09:01:25;;;;;;;6.05;2.10;;;;;;;;;;5052357;28;20020;-64
2023/12/05 09:03:57;;;;;;;3.90;2.53;;;;;;;;;;5070277;28;20028;-67
2023/12/05 09:06:24;;;;;;;3.10;2.67;;;;;;;;;;5058651;28;20032;-66
2023/12/05 09:08:50;;;;;;;6.85;2.53;;;;;;;;;;5053488;28;20029;-65
2023/12/05 09:11:16;;;;;;;4.47;2.08;;;;;;;;;;5050916;28;20425;-63
2023/12/05 09:13:42;;;;;;;3.80;2.28;;;;;;;;;;5052342;28;20208;-65
2023/12/05 09:16:08;;;;;;;4.82;2.47;;;;;;;;;;5056391;28;20031;-67
2023/12/05 09:18:35;;;;;;;7.45;2.33;;;;;;;;;;5055784;28;20024;-65
2023/12/05 09:21:01;;;;;;;12.60;2.53;;;;;;;;;;5055729;28;20028;-65
2023/12/05 09:23:27;;;;;;;5.55;2.40;;;;;;;;;;5059554;28;20029;-65
2023/12/05 09:25:55;;;;;;;4.32;2.00;;;;;;;;;;5076187;28;20021;-64
2023/12/05 09:28:21;;;;;;;4.47;2.45;;;;;;;;;;5075215;28;20492;-65
2023/12/05 09:30:47;;;;;;;7.80;3.00;;;;;;;;;;5057129;28;20033;-64
2023/12/05 09:33:13;;;;;;;5.00;3.22;;;;;;;;;;5052494;28;20039;-64
2023/12/05 09:35:40;;;;;;;4.90;2.20;;;;;;;;;;5054367;28;20944;-64
2023/12/05 09:38:07;;;;;;;3.17;2.13;;;;;;;;;;5054594;28;20131;-63
2023/12/05 09:40:35;;;;;;;7.82;2.70;;;;;;;;;;5057332;28;20033;-64
2023/12/05 09:43:06;;;;;;;6.78;2.50;;;;;;;;;;5058343;28;20041;-65
2023/12/05 09:45:45;;;;;;;3.60;2.22;;;;;;;;;;5053491;28;20598;-64
2023/12/05 09:48:15;;;;;;;3.22;2.63;;;;;;;;;;5047778;28;20035;-64
2023/12/05 09:50:44;;;;;;;4.38;2.50;;;;;;;;;;5050788;28;20111;-65
2023/12/05 09:53:11;;;;;;;6.22;2.50;;;;;;;;;;5040000;28;20032;-65
2023/12/05 09:55:38;;;;;;;4.45;2.58;;;;;;;;;;5051208;28;20074;-64
2023/12/05 09:58:05;;;;;;;9.27;2.78;;;;;;;;;;5067198;28;20032;-65
2023/12/05 10:00:31;;;;;;;3.75;2.67;;;;;;;;;;5046766;28;20036;-67
2023/12/05 10:02:59;;;;;;;7.50;2.97;;;;;;;;;;5052904;28;20032;-65
2023/12/05 10:05:26;;;;;;;7.47;2.65;;;;;;;;;;5053468;28;20024;-65
2023/12/05 10:07:53;;;;;;;7.63;3.47;;;;;;;;;;5052744;28;20111;-65
2023/12/05 10:10:20;;;;;;;3.03;2.60;;;;;;;;;;5069712;28;20170;-67
2023/12/05 10:12:48;;;;;;;2.72;2.00;;;;;;;;;;5048378;28;20059;-64
2023/12/05 10:15:14;;;;;;;5.60;2.38;;;;;;;;;;5062459;28;20059;-62
2023/12/05 10:17:41;;;;;;;8.10;2.75;;;;;;;;;;5070501;28;20464;-63
2023/12/05 10:20:08;;;;;;;3.00;2.67;;;;;;;;;;5052741;28;20055;-63
2023/12/05 10:22:34;;;;;;;4.90;2.10;;;;;;;;;;5067948;28;20032;-64
2023/12/05 10:25:01;;;;;;;6.90;2.63;;;;;;;;;;5053111;28;20052;-63
2023/12/05 10:27:27;;;;;;;3.95;2.35;;;;;;;;;;5070251;28;20036;-64
2023/12/05 10:29:54;;;;;;;3.72;2.35;;;;;;;;;;5047138;28;20104;-65
2023/12/05 10:32:26;;;;;;;6.72;2.00;;;;;;;;;;5068234;28;20036;-65
2023/12/05 10:34:53;;;;;;;4.20;2.20;;;;;;;;;;5072141;28;20052;-64
2023/12/05 10:37:23;;;;;;;8.13;2.90;;;;;;;;;;5061244;28;20024;-64
2023/12/05 10:39:54;;;;;;;6.65;2.58;;;;;;;;;;5053631;28;20032;-65
2023/12/05 10:42:21;;;;;;;4.30;2.60;;;;;;;;;;5069660;28;20033;-66
2023/12/05 10:44:47;;;;;;;5.47;2.40;;;;;;;;;;5060484;28;20048;-68
2023/12/05 10:47:14;;;;;;;2.65;2.38;;;;;;;;;;5056489;28;20195;-67
2023/12/05 10:49:42;;;;;;;4.75;2.15;;;;;;;;;;5056817;28;20025;-66
2023/12/05 10:52:15;;;;;;;4.93;2.40;;;;;;;;;;5053531;28;20981;-68
2023/12/05 10:54:42;;;;;;;4.80;3.03;;;;;;;;;;5051055;28;20065;-68
2023/12/05 10:57:11;;;;;;;20.17;8.45;;;;;;;;;;5053994;28;20028;-68
2023/12/05 10:59:40;;;;;;;6.97;3.65;;;;;;;;;;5052536;28;20036;-65
2023/12/05 11:02:16;;;;;;;22.33;8.40;;;;;;;;;;5056720;28;20419;-68
2023/12/05 11:04:43;;;;;;;13.60;7.38;;;;;;;;;;5070108;28;20131;-67
2023/12/05 11:07:10;;;;;;;29.80;11.82;;;;;;;;;;5051298;28;20906;-66
2023/12/05 11:09:41;;;;;;;58.92;22.38;;;;;;;;;;5052902;28;20035;-67
2023/12/05 11:12:08;;;;;;;16.60;8.30;;;;;;;;;;5050814;28;20032;-66
2023/12/05 11:14:41;;;;;;;12.98;8.15;;;;;;;;;;5061573;28;20417;-65
2023/12/05 11:17:11;;;;;;;13.80;8.18;;;;;;;;;;5059105;28;20059;-66
2023/12/05 11:19:47;;;;;;;5.40;3.03;;;;;;;;;;5053153;28;20502;-66
2023/12/05 11:22:32;;;;;;;4.65;3.60;;;;;;;;;;5057923;28;20419;-68
2023/12/05 11:25:01;;;;;;;3.87;3.23;;;;;;;;;;5057073;28;20024;-65
2023/12/05 11:27:34;;;;;;;2.88;2.58;;;;;;;;;;5055369;28;20029;-67
2023/12/05 11:30:13;;;;;;;4.22;2.38;;;;;;;;;;5055942;28;20024;-66
2023/12/05 11:32:57;;;;;;;5.65;2.38;;;;;;;;;;5056683;28;20775;-65
2023/12/05 11:35:28;;;;;;;6.00;3.05;;;;;;;;;;5057079;28;20120;-67
2023/12/05 11:37:55;;;;;;;2.75;2.42;;;;;;;;;;5056991;28;20087;-67
2023/12/05 11:40:21;;;;;;;3.25;2.38;;;;;;;;;;5059475;28;20152;-68
2023/12/05 11:43:07;;;;;;;3.88;2.38;;;;;;;;;;5044596;28;20031;-68
2023/12/05 11:45:33;;;;;;;;;;;;;;;;;;5051206;28;20669;-66
2023/12/05 11:48:00;;;;;;;4.50;2.10;;;;;;;;;;5054490;28;20407;-66
2023/12/05 11:50:26;;;;;;;3.70;2.50;;;;;;;;;;5064621;28;20036;-66
2023/12/05 11:52:52;;;;;;;6.03;2.55;;;;;;;;;;5060047;28;20542;-67
2023/12/05 11:55:18;;;;;;;3.75;2.85;;;;;;;;;;5068654;28;20048;-65
2023/12/05 11:57:45;;;;;;;4.63;2.85;;;;;;;;;;5060132;28;20029;-66
2023/12/05 12:00:11;;;;;;;3.10;2.75;;;;;;;;;;5058656;28;20025;-67
2023/12/05 12:02:37;;;;;;;3.85;2.55;;;;;;;;;;5064031;28;20029;-66
2023/12/05 12:05:09;;;;;;;5.55;2.55;;;;;;;;;;5049681;28;20107;-68
2023/12/05 12:07:44;;;;;;;6.68;2.63;;;;;;;;;;5052818;28;20031;-66
2023/12/05 12:10:10;;;;;;;4.60;2.55;;;;;;;;;;5051778;28;20135;-66
2023/12/05 12:12:37;;;;;;;5.85;2.50;;;;;;;;;;5063808;28;20032;-67
2023/12/05 12:15:03;;;;;;;3.03;2.55;;;;;;;;;;5045439;28;20033;-67
2023/12/05 12:17:29;;;;;;;4.15;2.40;;;;;;;;;;5047978;28;20040;-69
2023/12/05 12:19:56;;;;;;;3.35;2.42;;;;;;;;;;5040430;28;20040;-67
2023/12/05 12:22:22;;;;;;;3.42;2.03;;;;;;;;;;5037983;28;22147;-68
2023/12/05 12:24:49;;;;;;;2.70;2.28;;;;;;;;;;5037763;28;20126;-66
2023/12/05 12:27:15;;;;;;;7.05;2.72;;;;;;;;;;5046001;28;20037;-67
2023/12/05 12:29:53;;;;;;;4.13;2.60;;;;;;;;;;5044526;28;20119;-66
2023/12/05 12:32:19;;;;;;;3.63;2.10;;;;;;;;;;5045170;28;20044;-66
2023/12/05 12:34:45;;;;;;;4.18;2.50;;;;;;;;;;5046383;28;20123;-66
2023/12/05 12:37:12;;;;;;;4.72;2.30;;;;;;;;;;5046545;28;20688;-66
2023/12/05 12:39:42;;;;;;;3.17;2.33;;;;;;;;;;5043634;28;20074;-65
2023/12/05 12:42:10;;;;;;;3.58;3.15;;;;;;;;;;5050471;28;20021;-65
2023/12/05 12:44:43;;;;;;;4.13;2.17;;;;;;;;;;5049941;28;20056;-65
2023/12/05 12:47:09;;;;;;;3.50;2.30;;;;;;;;;;5045863;28;20028;-67
2023/12/05 12:49:36;;;;;;;3.88;3.28;;;;;;;;;;5046508;28;20082;-70
2023/12/05 12:52:03;;;;;;;3.47;2.35;;;;;;;;;;5064095;28;20064;-70
2023/12/05 12:54:29;;;;;;;2.60;2.10;;;;;;;;;;5061001;28;20870;-70
2023/12/05 12:56:55;;;;;;;3.53;2.15;;;;;;;;;;5050010;28;20476;-67
2023/12/05 12:59:22;;;;;;;3.03;2.47;;;;;;;;;;5050453;28;20091;-70
2023/12/05 13:01:50;;;;;;;3.15;2.63;;;;;;;;;;5048609;28;20568;-71
2023/12/05 13:04:17;;;;;;;3.65;2.40;;;;;;;;;;5054407;28;20032;-70
2023/12/05 13:06:47;;;;;;;9.52;2.90;;;;;;;;;;5071212;28;20520;-71
2023/12/05 13:09:14;;;;;;;5.45;2.60;;;;;;;;;;5061778;28;20033;-70
2023/12/05 13:11:42;;;;;;;3.50;2.33;;;;;;;;;;5056536;28;20113;-70
2023/12/05 13:14:09;;;;;;;4.32;2.75;;;;;;;;;;5057152;28;20796;-70
2023/12/05 13:16:39;;;;;;;7.45;2.85;;;;;;;;;;5055250;28;20438;-70
2023/12/05 13:19:05;;;;;;;6.47;2.60;;;;;;;;;;5050722;28;20418;-71
2023/12/05 13:21:32;;;;;;;5.57;2.50;;;;;;;;;;5049429;28;20035;-71
2023/12/05 13:23:59;;;;;;;3.47;2.75;;;;;;;;;;5050292;28;20028;-70
2023/12/05 13:26:25;;;;;;;2.58;2.03;;;;;;;;;;5053170;28;20439;-70
2023/12/05 13:28:51;;;;;;;5.35;2.75;;;;;;;;;;5045920;28;20036;-73
2023/12/05 13:31:18;;;;;;;3.92;2.35;;;;;;;;;;5056228;28;20020;-70
2023/12/05 13:33:44;;;;;;;3.63;2.17;;;;;;;;;;5052881;28;20070;-71
2023/12/05 13:36:10;;;;;;;7.10;3.63;;;;;;;;;;5050090;28;20039;-70
2023/12/05 13:38:40;;;;;;;3.40;2.60;;;;;;;;;;5051242;28;20461;-71
2023/12/05 13:41:06;;;;;;;4.75;2.80;;;;;;;;;;5064271;28;20670;-70
2023/12/05 13:43:32;;;;;;;3.20;2.50;;;;;;;;;;5055272;28;20021;-70
2023/12/05 13:45:58;;;;;;;3.78;2.50;;;;;;;;;;5045515;28;20040;-71
2023/12/05 13:48:26;;;;;;;5.90;3.13;;;;;;;;;;5037925;28;20571;-70
2023/12/05 13:50:52;;;;;;;7.75;3.00;;;;;;;;;;5042537;28;20377;-71
2023/12/05 13:53:18;;;;;;;4.90;3.30;;;;;;;;;;5043532;28;20475;-70
2023/12/05 13:55:44;;;;;;;6.93;3.03;;;;;;;;;;5061630;28;20040;-71
2023/12/05 13:58:10;;;;;;;5.60;3.20;;;;;;;;;;5060536;28;20051;-72
2023/12/05 14:00:37;;;;;;;5.80;2.72;;;;;;;;;;5048995;28;20047;-72
2023/12/05 14:03:03;;;;;;;5.95;3.58;;;;;;;;;;5053759;28;20665;-72
2023/12/05 14:05:30;;;;;;;6.63;3.17;;;;;;;;;;5073095;28;20075;-72
2023/12/05 14:07:56;;;;;;;5.80;2.90;;;;;;;;;;5053179;28;20127;-69
2023/12/05 14:10:22;;;;;;;4.65;2.60;;;;;;;;;;5050284;28;20200;-72
2023/12/05 14:12:49;;;;;;;5.93;2.65;;;;;;;;;;5053730;28;20033;-72
2023/12/05 14:15:16;;;;;;;5.05;2.85;;;;;;;;;;5051189;28;20047;-72
2023/12/05 14:17:42;;;;;;;5.40;2.60;;;;;;;;;;5048873;28;20016;-70
2023/12/05 14:20:10;;;;;;;5.55;3.10;;;;;;;;;;5065295;28;20029;-71
2023/12/05 14:22:37;;;;;;;7.22;3.30;;;;;;;;;;5048656;28;20017;-70
2023/12/05 14:25:06;;;;;;;5.53;2.83;;;;;;;;;;5047337;28;20114;-72
2023/12/05 14:27:33;;;;;;;5.32;3.38;;;;;;;;;;5052616;28;20056;-70
2023/12/05 14:29:59;;;;;;;4.00;2.95;;;;;;;;;;5052129;28;20039;-69
2023/12/05 14:32:26;;;;;;;4.55;3.10;;;;;;;;;;5045221;28;20538;-69
2023/12/05 14:34:52;;;;;;;6.30;2.85;;;;;;;;;;5050556;28;20032;-70
2023/12/05 14:37:19;;;;;;;4.75;2.78;;;;;;;;;;5051442;28;20054;-68
2023/12/05 14:39:46;;;;;;;3.50;2.70;;;;;;;;;;5052388;28;20029;-71
2023/12/05 14:42:13;;;;;;;6.60;3.03;;;;;;;;;;5048358;28;20037;-70
2023/12/05 14:44:43;;;;;;;4.65;3.25;;;;;;;;;;5045844;28;20091;-70